Nearby METAR Reports

 

KSJC - San Jose, California, USA
Distance from station: NE 14km
Actualización: 14/07/2020 08:53
Despejado
Despejado
 Viento del SSE
Viento: SSE 26 km/h
Temperatura: 15°C
Rocío: 11°C
Humedad: 77%
Barómetro: 1012.9 hPa
Clouds: Despejado
Visibilidad: 16 km
2020/07/14 06:53 KSJC 140653Z 15014KT 10SM CLR 15/11 A2991 RMK AO2 SLP127 LAST T01500106
KNUQ - Moffett Nas/Mtn, California, USA
Distance from station: N 14km
Actualización: 14/07/2020 08:55

 Viento del NE
Viento: NE 7 km/h
Temperatura: 15°C
Rocío: 12°C
Humedad: 82%
Barómetro: 1012.9 hPa
Visibilidad: 16 km
2020/07/14 06:55 KNUQ 140655Z AUTO 04004KT 10SM 15/12 A2991 RMK AO2
 
KPAO - Palo Alto, California, USA
Distance from station: NNO 23km
Actualización: 14/07/2020 00:47
NOT Current
Despejado
Despejado
 Viento del N
Viento: N 26 km/h, Racha: 39 km/h
Temperatura: 22°C
Rocío: 14°C
Humedad: 61%
Barómetro: 1011.2 hPa
Clouds: Despejado
Visibilidad: 16 km
2020/07/13 22:47 KPAO 132247Z 35014G21KT 10SM SKC 22/14 A2986 RMK LAST
KRHV - San Jose/Reid, California, USA
Distance from station: ENE 19km
Actualización: 14/07/2020 06:47
NOT Current
Despejado
Despejado
 Viento del O
Viento: O 7 km/h
Temperatura: 17°C
Rocío: 11°C
Humedad: 68%
Barómetro: 1012.9 hPa
Clouds: Despejado
Visibilidad: 16 km
2020/07/14 04:47 KRHV 140447Z 28004KT 10SM SKC 17/11 A2991 RMK LAST
 
KOAK - Oakland, California, USA
Distance from station: NNO 50km
Actualización: 14/07/2020 08:53
Parcialmente nuboso
Parcialmente nuboso
 Viento del OSO
Viento: OSO 15 km/h
Temperatura: 16°C
Rocío: 12°C
Humedad: 77%
Barómetro: 1012.9 hPa
Clouds: Parcialmente nuboso
Visibilidad: 16 km
Cloud details: Parcialmente nuboso 457 m
2020/07/14 06:53 KOAK 140653Z 24008KT 10SM SCT015 16/12 A2991 RMK AO2 SLP128 T01610117
KSQL - San Carlos Airpo, California, USA
Distance from station: NO 34km
Actualización: 14/07/2020 09:00
Despejado
Despejado
 Viento del O
Viento: O 9 km/h
Temperatura: 15°C
Rocío: 11°C
Humedad: 77%
Barómetro: 1012.9 hPa
Clouds: Despejado
Visibilidad: 16 km
2020/07/14 07:00 KSQL 140700Z AUTO 26005KT 10SM CLR 15/11 A2991 RMK AO2
 
KSFO - San Francisco, California, USA
Distance from station: NO 49km
Actualización: 14/07/2020 08:56
Few Clouds
Few Clouds
 Viento del ONO
Viento: ONO 11 km/h
Temperatura: 14°C
Rocío: 10°C
Humedad: 77%
Barómetro: 1012.5 hPa
Clouds: Few Clouds
Visibilidad: 16 km
Cloud details: Few Clouds 183 m
2020/07/14 06:56 KSFO 140656Z 29006KT 10SM FEW006 14/10 A2990 RMK AO2 SLP125 T01440100
KE16 - San Martin, California, USA
Distance from station: ESE 43km
Actualización: 14/07/2020 08:50
Cubierto
Cubierto
 Viento del SE
Viento: SE 20 km/h
Temperatura: 13°C
Rocío: 11°C
Humedad: 88%
Barómetro: 1014.6 hPa
Clouds: Cubierto
Visibilidad: 14 km
Cloud details: Cubierto 274 m
2020/07/14 06:50 KE16 140650Z AUTO 13011KT 9SM OVC009 13/11 A2996 RMK AO2
 
KWVI - Watsonville, California, USA
Distance from station: SSE 44km
Actualización: 14/07/2020 08:53
Cubierto
Cubierto
 Viento del S
Viento: S 9 km/h
Temperatura: 13°C
Rocío: 12°C
Humedad: 94%
Barómetro: 1014.6 hPa
Clouds: Cubierto
Visibilidad: 16 km
Cloud details: Cubierto 244 m
2020/07/14 06:53 KWVI 140653Z AUTO 17005KT 10SM OVC008 13/12 A2996 RMK AO2 SLP145 T01330117
KHAF - Half Moon Bay, California, USA
Distance from station: ONO 50km
Actualización: 14/07/2020 09:00
Mist, Cubierto
Mist, Cubierto
 Viento del S
Viento: S 11 km/h
Temperatura: 13°C
Rocío: 11°C
Humedad: 88%
Barómetro: 1013.9 hPa
Resumen: Mist
Clouds: Cubierto
Visibilidad: 8 km
Cloud details: Cubierto 396 m
2020/07/14 07:00 KHAF 140700Z AUTO 18006KT 5SM BR OVC013 13/11 A2994 RMK AO2
 
KHWD - Hayward, California, USA
Distance from station: N 44km
Actualización: 14/07/2020 08:54
Parcialmente nuboso
Parcialmente nuboso
 Viento del calm
Viento: Calma
Temperatura: 15°C
Rocío: 11°C
Humedad: 77%
Barómetro: 1012.9 hPa
Clouds: Parcialmente nuboso
Visibilidad: 16 km
Cloud details: Parcialmente nuboso 457 m
2020/07/14 06:54 KHWD 140654Z AUTO 00000KT 10SM SCT015 15/11 A2991 RMK AO2 SLP135 T01500111
KLVK - Livermore, California, USA
Distance from station: NNE 51km
Actualización: 14/07/2020 08:53
Despejado
Despejado
 Viento del NO
Viento: NO 19 km/h
Temperatura: 14°C
Rocío: 11°C
Humedad: 82%
Barómetro: 1012.2 hPa
Clouds: Despejado
Visibilidad: 13 km
2020/07/14 06:53 KLVK 140653Z AUTO 32010KT 8SM CLR 14/11 A2989 RMK AO2 SLP116 T01390111